Time;durP1;ratioP1;P1;durP2;ratioP2;P2;SDS_P1;SDS_P2;PMS_P1;PMS_P2;Temp;Humidity;BMP_temperature;BMP_pressure;BME280_temperature;BME280_humidity;BME280_pressure;Samples;Min_cycle;Max_cycle;Signal;HPM_P1;HPM_P2
2021/04/15 00:01:53;;;;;;;12.30;9.90;;;9.50;79.70;;;;;;5107989;28;20024;-87
2021/04/15 00:04:19;;;;;;;14.40;10.18;;;9.50;79.70;;;;;;5102944;28;20062;-88
2021/04/15 00:06:45;;;;;;;13.48;8.40;;;9.50;79.70;;;;;;5097365;28;20030;-87
2021/04/15 00:09:15;;;;;;;12.23;9.60;;;9.50;79.60;;;;;;5113617;28;20031;-88
2021/04/15 00:11:42;;;;;;;13.07;9.13;;;9.50;79.60;;;;;;5111896;28;20515;-88
2021/04/15 00:14:11;;;;;;;13.15;9.98;;;9.50;79.70;;;;;;5115555;28;20051;-87
2021/04/15 00:16:37;;;;;;;13.02;9.15;;;9.50;79.60;;;;;;5097109;28;20028;-87
2021/04/15 00:19:07;;;;;;;14.43;9.68;;;9.50;79.60;;;;;;5097052;28;20024;-88
2021/04/15 00:21:33;;;;;;;13.70;9.38;;;9.50;79.70;;;;;;5096885;28;20020;-88
2021/04/15 00:23:59;;;;;;;13.10;9.35;;;9.50;79.70;;;;;;5096785;28;20031;-88
2021/04/15 00:26:27;;;;;;;12.35;8.70;;;9.50;79.80;;;;;;5114933;28;20102;-88
2021/04/15 00:28:54;;;;;;;13.65;9.32;;;9.50;79.80;;;;;;5097443;28;20122;-88
2021/04/15 00:31:22;;;;;;;11.30;8.43;;;9.60;79.90;;;;;;5114563;28;20028;-88
2021/04/15 00:33:48;;;;;;;12.90;9.23;;;9.60;79.80;;;;;;5096765;28;20032;-88
2021/04/15 00:36:13;;;;;;;11.85;8.95;;;9.60;79.80;;;;;;5096724;28;20061;-88
2021/04/15 00:38:40;;;;;;;13.35;9.95;;;9.60;79.90;;;;;;5096708;28;20107;-88
2021/04/15 00:41:08;;;;;;;13.02;9.68;;;9.60;80.00;;;;;;5096415;28;20028;-88
2021/04/15 00:43:40;;;;;;;14.32;10.45;;;9.50;80.20;;;;;;5096693;28;20028;-88
2021/04/15 00:46:27;;;;;;;12.60;9.70;;;9.60;80.40;;;;;;5096675;28;20085;-88
2021/04/15 00:48:53;;;;;;;16.08;9.75;;;9.60;80.60;;;;;;5096434;28;20050;-87
2021/04/15 00:51:32;;;;;;;14.02;9.75;;;9.60;80.60;;;;;;5096642;28;20122;-88
2021/04/15 00:54:06;;;;;;;14.32;9.95;;;9.60;80.70;;;;;;5096436;28;20027;-88
2021/04/15 00:56:33;;;;;;;12.82;9.07;;;9.50;80.60;;;;;;5096524;28;20126;-88
2021/04/15 00:58:59;;;;;;;17.05;11.02;;;9.50;80.80;;;;;;5096338;28;20106;-88
2021/04/15 01:01:26;;;;;;;14.77;10.68;;;9.50;81.10;;;;;;5096266;28;20035;-88
2021/04/15 01:03:52;;;;;;;16.15;11.05;;;9.40;81.20;;;;;;5096365;28;20062;-88
2021/04/15 01:06:18;;;;;;;16.45;11.05;;;9.40;81.50;;;;;;5096027;28;20032;-87
2021/04/15 01:08:44;;;;;;;17.75;12.25;;;9.40;81.80;;;;;;5114477;28;20453;-88
2021/04/15 01:11:26;;;;;;;17.80;12.63;;;9.40;82.20;;;;;;5096127;28;20071;-88
2021/04/15 01:14:15;;;;;;;17.52;12.45;;;9.40;82.40;;;;;;5096762;28;20038;-88
2021/04/15 01:17:03;;;;;;;15.95;11.43;;;9.40;82.40;;;;;;5096042;28;20073;-88
2021/04/15 01:19:43;;;;;;;20.75;13.68;;;9.30;82.50;;;;;;5096185;28;20032;-88
2021/04/15 01:22:45;;;;;;;16.92;12.20;;;9.30;82.60;;;;;;5113968;28;20020;-88
2021/04/15 01:25:17;;;;;;;18.90;12.43;;;9.20;82.40;;;;;;5096064;28;20030;-88
2021/04/15 01:27:54;;;;;;;19.00;11.68;;;9.20;82.50;;;;;;5096460;28;20023;-88
2021/04/15 01:30:31;;;;;;;18.65;12.82;;;9.10;82.60;;;;;;5096344;28;20038;-88
2021/04/15 01:33:12;;;;;;;19.55;12.07;;;9.10;82.90;;;;;;5103195;28;20024;-87
2021/04/15 01:35:45;;;;;;;17.20;11.43;;;9.10;83.00;;;;;;5106801;28;20051;-88
2021/04/15 01:38:29;;;;;;;17.60;11.50;;;9.00;83.10;;;;;;5108524;28;20430;-86
2021/04/15 01:41:21;;;;;;;13.82;11.25;;;9.00;83.20;;;;;;5110453;28;20036;-87
2021/04/15 01:43:54;;;;;;;18.35;12.05;;;9.00;83.30;;;;;;5107468;28;20062;-88
2021/04/15 01:46:24;;;;;;;17.67;11.80;;;9.00;83.40;;;;;;5100575;28;20026;-88
2021/04/15 01:48:53;;;;;;;20.27;13.68;;;9.00;83.70;;;;;;5100035;28;20470;-88
2021/04/15 01:51:23;;;;;;;19.35;13.63;;;9.00;83.80;;;;;;5099884;28;20040;-88
2021/04/15 01:54:13;;;;;;;17.42;12.07;;;9.00;83.80;;;;;;5099850;28;20027;-87
2021/04/15 01:56:54;;;;;;;21.70;13.23;;;9.00;84.00;;;;;;5100322;28;20063;-88
2021/04/15 01:59:32;;;;;;;56.08;27.85;;;9.00;84.00;;;;;;5099802;28;20031;-88
2021/04/15 02:02:22;;;;;;;137.25;66.32;;;9.00;84.00;;;;;;5099927;28;20106;-88
2021/04/15 02:05:07;;;;;;;146.90;73.63;;;9.00;84.10;;;;;;5099261;28;20119;-88
2021/04/15 02:07:39;;;;;;;110.82;53.40;;;9.00;84.10;;;;;;5099706;28;20460;-87
2021/04/15 02:10:09;;;;;;;85.95;43.65;;;9.00;84.10;;;;;;5098676;28;20043;-87
2021/04/15 02:12:38;;;;;;;105.43;56.10;;;9.10;84.20;;;;;;5099396;28;20458;-87
2021/04/15 02:15:07;;;;;;;94.32;48.33;;;9.10;84.40;;;;;;5099667;28;20034;-87
2021/04/15 02:17:39;;;;;;;61.03;35.47;;;9.10;84.40;;;;;;5100326;28;20455;-87
2021/04/15 02:20:32;;;;;;;44.28;27.05;;;9.10;84.60;;;;;;5099835;28;20458;-88
2021/04/15 02:23:05;;;;;;;42.87;24.47;;;9.10;84.60;;;;;;5095473;28;20039;-88
2021/04/15 02:26:00;;;;;;;34.63;22.42;;;9.10;84.50;;;;;;5099406;28;20024;-87
2021/04/15 02:28:41;;;;;;;30.98;19.42;;;9.10;84.90;;;;;;5099150;28;20028;-88
2021/04/15 02:31:20;;;;;;;34.20;19.05;;;9.20;84.70;;;;;;5099597;28;20031;-88
2021/04/15 02:33:54;;;;;;;26.00;17.13;;;9.20;84.70;;;;;;5099149;28;20031;-87
2021/04/15 02:36:21;;;;;;;32.60;18.70;;;9.20;84.60;;;;;;5117398;28;20026;-88
2021/04/15 02:38:54;;;;;;;26.70;16.20;;;9.20;84.60;;;;;;5098782;28;20067;-88
2021/04/15 02:41:30;;;;;;;24.80;14.52;;;9.30;84.70;;;;;;5098562;28;20359;-88
2021/04/15 02:44:04;;;;;;;22.73;15.15;;;9.30;84.80;;;;;;5098813;28;20486;-88
2021/04/15 02:46:57;;;;;;;25.10;15.88;;;9.30;84.60;;;;;;5099242;28;20027;-88
2021/04/15 02:49:27;;;;;;;30.13;19.65;;;9.30;84.70;;;;;;5098661;28;20031;-88
2021/04/15 02:52:17;;;;;;;24.17;16.38;;;9.40;84.70;;;;;;5098759;28;20470;-87
2021/04/15 02:54:55;;;;;;;23.10;14.68;;;9.30;84.40;;;;;;5098521;28;20028;-88
2021/04/15 02:57:24;;;;;;;25.08;17.17;;;9.40;84.40;;;;;;5116779;28;20023;-87
2021/04/15 02:59:58;;;;;;;19.92;14.45;;;9.40;84.30;;;;;;5098285;28;20139;-87
2021/04/15 03:02:43;;;;;;;21.70;14.10;;;9.40;84.30;;;;;;5098772;28;20028;-87
2021/04/15 03:05:12;;;;;;;17.27;12.30;;;9.40;84.20;;;;;;5098588;28;20123;-87
2021/04/15 03:07:41;;;;;;;18.77;12.95;;;9.30;84.20;;;;;;5098444;28;20028;-89
2021/04/15 03:10:27;;;;;;;16.55;12.35;;;9.30;84.20;;;;;;5121199;27;20435;-87
2021/04/15 03:12:59;;;;;;;17.52;12.35;;;9.30;84.40;;;;;;5129767;27;20027;-87
2021/04/15 03:15:32;;;;;;;21.30;14.05;;;9.30;84.60;;;;;;5129733;27;20023;-87
2021/04/15 03:18:03;;;;;;;20.08;13.35;;;9.30;84.70;;;;;;5129972;27;20052;-87
2021/04/15 03:20:37;;;;;;;20.85;13.63;;;9.30;84.80;;;;;;5145911;27;20027;-87
2021/04/15 03:23:12;;;;;;;21.83;13.65;;;9.30;84.80;;;;;;5118818;27;20027;-88
2021/04/15 03:25:40;;;;;;;23.15;14.77;;;9.40;84.90;;;;;;5118808;27;20156;-88
2021/04/15 03:28:19;;;;;;;22.27;13.75;;;9.30;85.00;;;;;;5118594;27;20034;-88
2021/04/15 03:30:51;;;;;;;18.30;13.30;;;9.40;85.00;;;;;;5118412;27;20027;-88
2021/04/15 03:34:00;;;;;;;18.52;12.48;;;9.40;85.00;;;;;;5118675;27;20023;-88
2021/04/15 03:36:32;;;;;;;19.55;12.55;;;9.40;85.10;;;;;;5053482;28;20118;-88
2021/04/15 03:39:02;;;;;;;16.20;11.52;;;9.40;85.20;;;;;;5036613;28;20530;-88
2021/04/15 03:41:34;;;;;;;19.55;12.55;;;9.50;85.20;;;;;;5074625;28;20047;-88
2021/04/15 03:44:11;;;;;;;21.70;13.30;;;9.50;85.30;;;;;;5117395;27;20123;-88
2021/04/15 03:46:48;;;;;;;22.65;14.32;;;9.60;85.60;;;;;;5118548;27;20374;-88
2021/04/15 03:49:18;;;;;;;22.50;13.82;;;9.60;85.40;;;;;;5118630;27;20374;-87
2021/04/15 03:51:49;;;;;;;19.98;14.07;;;9.70;85.40;;;;;;5118227;27;20362;-88
2021/04/15 03:54:19;;;;;;;18.27;12.55;;;9.70;85.30;;;;;;5118099;27;20028;-88
2021/04/15 03:56:54;;;;;;;22.17;12.48;;;9.80;85.30;;;;;;5118163;27;20023;-88
2021/04/15 03:59:23;;;;;;;18.17;13.02;;;9.80;85.30;;;;;;5118231;27;20061;-88
2021/04/15 04:01:53;;;;;;;16.25;11.45;;;9.80;85.20;;;;;;5117822;27;20019;-88
2021/04/15 04:04:38;;;;;;;17.40;11.38;;;9.90;85.20;;;;;;5117796;27;20027;-87
2021/04/15 04:07:11;;;;;;;15.75;10.75;;;9.90;85.00;;;;;;5118001;27;20022;-87
2021/04/15 04:09:43;;;;;;;14.48;9.52;;;10.00;85.00;;;;;;5117781;27;20443;-88
2021/04/15 04:12:14;;;;;;;13.15;10.52;;;10.00;84.80;;;;;;5117894;27;20066;-88
2021/04/15 04:14:57;;;;;;;14.52;10.20;;;10.10;84.90;;;;;;5117545;27;20027;-88
2021/04/15 04:17:37;;;;;;;16.75;11.13;;;10.20;84.70;;;;;;5117475;27;20030;-88
2021/04/15 04:20:04;;;;;;;17.98;11.90;;;10.20;84.50;;;;;;5117922;27;20035;-88
2021/04/15 04:22:47;;;;;;;16.98;11.35;;;10.30;84.30;;;;;;5117203;27;20027;-87
2021/04/15 04:25:18;;;;;;;15.23;10.70;;;10.30;84.20;;;;;;5116983;27;20027;-88
2021/04/15 04:28:06;;;;;;;19.45;11.50;;;10.40;84.00;;;;;;5135289;27;20473;-88
2021/04/15 04:30:50;;;;;;;13.85;10.07;;;10.40;84.00;;;;;;5117266;27;20122;-88
2021/04/15 04:33:18;;;;;;;14.63;9.90;;;10.50;83.80;;;;;;5135312;27;20023;-87
2021/04/15 04:35:48;;;;;;;14.32;10.10;;;10.50;83.60;;;;;;5116900;27;20037;-88
2021/04/15 04:38:19;;;;;;;15.10;10.23;;;10.60;83.60;;;;;;5117890;27;20058;-88
2021/04/15 04:40:55;;;;;;;16.55;12.32;;;10.70;83.50;;;;;;5116801;27;20031;-88
2021/04/15 04:43:26;;;;;;;17.08;11.35;;;10.70;83.30;;;;;;5117193;27;20118;-87
2021/04/15 04:46:01;;;;;;;16.80;10.52;;;10.70;83.10;;;;;;5116702;27;20457;-87
2021/04/15 04:48:38;;;;;;;16.52;11.13;;;10.80;83.00;;;;;;5116491;27;20038;-88
2021/04/15 04:51:09;;;;;;;17.10;11.20;;;10.80;83.00;;;;;;5120115;27;20035;-87
2021/04/15 04:53:43;;;;;;;16.63;11.68;;;10.90;83.00;;;;;;5124687;27;20023;-87
2021/04/15 04:56:08;;;;;;;17.05;12.38;;;11.00;82.70;;;;;;5125124;27;20027;-86
2021/04/15 04:58:38;;;;;;;19.75;12.75;;;11.00;82.50;;;;;;5147459;27;20027;-87
2021/04/15 05:01:06;;;;;;;19.40;12.75;;;11.10;82.50;;;;;;5133141;27;20023;-87
2021/04/15 05:03:33;;;;;;;17.80;12.77;;;11.10;82.40;;;;;;5130479;27;20120;-87
2021/04/15 05:06:08;;;;;;;22.60;14.90;;;11.20;82.30;;;;;;5116682;27;20027;-87
2021/04/15 05:08:59;;;;;;;21.25;15.85;;;11.20;82.10;;;;;;5116734;27;20069;-87
2021/04/15 05:11:39;;;;;;;21.77;15.65;;;11.20;81.90;;;;;;5117039;27;20309;-88
2021/04/15 05:14:07;;;;;;;23.70;16.42;;;11.20;81.80;;;;;;5116820;27;20023;-89
2021/04/15 05:16:42;;;;;;;25.67;16.33;;;11.20;81.80;;;;;;5116534;27;20023;-89
2021/04/15 05:19:08;;;;;;;21.20;15.20;;;11.20;81.80;;;;;;5116376;28;20027;-86
2021/04/15 05:21:35;;;;;;;25.23;16.60;;;11.30;81.90;;;;;;5117146;28;20025;-87
2021/04/15 05:24:22;;;;;;;24.27;17.80;;;11.30;81.90;;;;;;5116238;28;20076;-87
2021/04/15 05:26:49;;;;;;;20.80;14.95;;;11.40;81.80;;;;;;5116510;28;20477;-87
2021/04/15 05:29:19;;;;;;;23.60;15.55;;;11.40;81.90;;;;;;5116230;28;20028;-87
2021/04/15 05:31:47;;;;;;;24.75;15.23;;;11.40;81.80;;;;;;5116289;28;20023;-88
2021/04/15 05:34:40;;;;;;;23.58;14.85;;;11.50;81.70;;;;;;5116357;28;20028;-88
2021/04/15 05:37:21;;;;;;;19.40;14.43;;;11.60;81.40;;;;;;5116963;28;20066;-88
2021/04/15 05:39:47;;;;;;;19.27;14.77;;;11.70;81.20;;;;;;5116796;28;20062;-88
2021/04/15 05:42:32;;;;;;;22.73;15.77;;;11.70;81.00;;;;;;5116272;28;20076;-88
2021/04/15 05:45:09;;;;;;;23.67;16.17;;;11.80;80.80;;;;;;5116507;28;20054;-88
2021/04/15 05:47:41;;;;;;;25.98;17.67;;;11.90;80.60;;;;;;5117167;28;20030;-88
2021/04/15 05:50:22;;;;;;;23.73;17.15;;;11.90;80.50;;;;;;5116825;28;20035;-88
2021/04/15 05:53:12;;;;;;;20.58;15.70;;;12.00;80.50;;;;;;5115922;28;20031;-87
2021/04/15 05:55:55;;;;;;;24.23;16.13;;;12.00;80.20;;;;;;5121412;28;20062;-88
2021/04/15 05:58:23;;;;;;;21.92;15.40;;;12.10;79.90;;;;;;5124030;28;20023;-88
2021/04/15 06:01:17;;;;;;;19.55;12.10;;;12.10;79.70;;;;;;5126677;28;20023;-87
2021/04/15 06:04:22;;;;;;;21.23;14.07;;;12.20;79.70;;;;;;5119393;28;20039;-88
2021/04/15 06:06:48;;;;;;;20.38;13.05;;;12.20;79.50;;;;;;5101696;28;20034;-87
2021/04/15 06:09:14;;;;;;;18.08;13.00;;;12.10;79.20;;;;;;5113728;28;20079;-88
2021/04/15 06:11:59;;;;;;;17.60;11.93;;;12.20;79.20;;;;;;5095497;28;20027;-88
2021/04/15 06:14:35;;;;;;;14.98;12.40;;;12.10;79.20;;;;;;5113836;28;20024;-88
2021/04/15 06:17:19;;;;;;;17.63;11.18;;;12.20;79.20;;;;;;5096515;28;20115;-88
2021/04/15 06:19:51;;;;;;;15.77;10.27;;;12.20;79.20;;;;;;5096461;28;20027;-88
2021/04/15 06:22:24;;;;;;;17.70;11.55;;;12.20;79.10;;;;;;5095481;28;20027;-88
2021/04/15 06:25:01;;;;;;;15.30;10.52;;;12.20;79.00;;;;;;5114674;28;20028;-89
2021/04/15 06:27:27;;;;;;;14.63;10.57;;;12.20;78.80;;;;;;5114242;28;20115;-88
2021/04/15 06:30:01;;;;;;;13.00;10.07;;;12.20;78.80;;;;;;5098721;28;20028;-88
2021/04/15 06:32:45;;;;;;;;;;;12.30;78.70;;;;;;5099423;28;20038;-88
2021/04/15 06:35:22;;;;;;;14.60;10.20;;;12.30;78.00;;;;;;5117218;28;20238;-88
2021/04/15 06:38:11;;;;;;;13.80;10.70;;;12.40;78.20;;;;;;5099123;28;20020;-88
2021/04/15 06:40:52;;;;;;;13.48;10.52;;;12.40;78.30;;;;;;5058021;28;20031;-89
2021/04/15 06:43:34;;;;;;;16.45;10.85;;;12.60;78.30;;;;;;5099813;28;20114;-88
2021/04/15 06:46:02;;;;;;;24.30;11.52;;;12.70;78.10;;;;;;5109678;28;20033;-88
2021/04/15 06:48:36;;;;;;;17.13;11.65;;;12.90;78.40;;;;;;5116918;28;20024;-87
2021/04/15 06:51:40;;;;;;;16.05;11.45;;;13.10;78.00;;;;;;5118934;28;20046;-87
2021/04/15 06:54:11;;;;;;;19.02;12.65;;;13.30;77.30;;;;;;5121041;28;20061;-87
2021/04/15 06:57:07;;;;;;;16.05;11.93;;;13.50;77.00;;;;;;5113152;28;20040;-87
2021/04/15 06:59:53;;;;;;;17.17;12.43;;;13.80;76.40;;;;;;5104340;28;20036;-87
2021/04/15 07:02:50;;;;;;;16.75;11.07;;;14.00;75.50;;;;;;5101415;28;20406;-88
2021/04/15 07:05:24;;;;;;;18.05;11.32;;;14.20;74.20;;;;;;5105584;28;20015;-87
2021/04/15 07:08:02;;;;;;;17.10;12.10;;;14.30;73.80;;;;;;5113927;28;20080;-87
2021/04/15 07:10:49;;;;;;;15.90;12.25;;;14.40;73.00;;;;;;5104642;28;20051;-87
2021/04/15 07:13:29;;;;;;;15.30;10.85;;;14.40;72.40;;;;;;5098818;28;20118;-87
2021/04/15 07:16:09;;;;;;;16.05;10.50;;;14.40;72.30;;;;;;5098519;28;20047;-88
2021/04/15 07:19:12;;;;;;;15.23;11.50;;;14.40;72.20;;;;;;5097990;28;20122;-88
2021/04/15 07:22:16;;;;;;;12.65;9.90;;;14.30;71.10;;;;;;5097645;28;20374;-88
2021/04/15 07:24:54;;;;;;;16.08;10.05;;;14.20;71.60;;;;;;5088375;28;20040;-87
2021/04/15 07:27:57;;;;;;;12.80;9.07;;;14.20;72.10;;;;;;5098660;28;20492;-88
2021/04/15 07:30:49;;;;;;;12.02;9.60;;;14.30;71.00;;;;;;5097514;28;20032;-88
2021/04/15 07:33:40;;;;;;;14.35;9.48;;;14.40;71.30;;;;;;5115256;28;20028;-89
2021/04/15 07:36:38;;;;;;;16.13;10.27;;;14.50;71.20;;;;;;5097735;28;20023;-88
2021/04/15 07:39:33;;;;;;;14.23;9.57;;;14.60;71.40;;;;;;5041943;28;20035;-88
2021/04/15 07:42:19;;;;;;;13.80;9.27;;;14.80;70.20;;;;;;5097241;28;20024;-89
2021/04/15 07:44:56;;;;;;;12.30;10.30;;;14.90;70.30;;;;;;5096616;28;20078;-88
2021/04/15 07:47:59;;;;;;;12.07;10.68;;;15.10;69.70;;;;;;5097190;28;20113;-88
2021/04/15 07:51:02;;;;;;;13.32;10.65;;;15.30;68.50;;;;;;5096504;28;20123;-88
2021/04/15 07:53:46;;;;;;;15.82;10.43;;;15.30;67.00;;;;;;5096709;28;20093;-88
2021/04/15 07:56:45;;;;;;;14.75;11.32;;;15.40;67.50;;;;;;5115040;28;20532;-88
2021/04/15 07:59:17;;;;;;;15.82;11.55;;;15.50;67.70;;;;;;5097713;28;20035;-88
2021/04/15 08:02:09;;;;;;;13.15;10.35;;;15.60;67.40;;;;;;5097029;28;20024;-88
2021/04/15 08:05:02;;;;;;;11.85;10.20;;;15.60;67.30;;;;;;5097993;28;20403;-88
2021/04/15 08:07:43;;;;;;;13.18;10.32;;;15.60;66.90;;;;;;5097869;28;20039;-88
2021/04/15 08:10:46;;;;;;;12.35;9.90;;;15.70;66.90;;;;;;5109822;28;20044;-87
2021/04/15 08:13:40;;;;;;;10.27;7.78;;;15.70;65.50;;;;;;5096922;28;20073;-87
2021/04/15 08:16:43;;;;;;;9.32;6.78;;;15.70;66.20;;;;;;5096469;28;20027;-87
2021/04/15 08:19:40;;;;;;;8.45;5.85;;;15.80;64.80;;;;;;5096163;28;20032;-88
2021/04/15 08:22:28;;;;;;;7.30;5.20;;;15.90;64.40;;;;;;5096586;28;20087;-88
2021/04/15 08:25:18;;;;;;;10.73;5.57;;;16.00;64.60;;;;;;5097321;28;20054;-88
2021/04/15 08:27:59;;;;;;;5.93;5.22;;;16.10;63.20;;;;;;5096667;28;20027;-88
2021/04/15 08:30:48;;;;;;;6.75;5.25;;;16.00;63.10;;;;;;5096617;28;20028;-87
2021/04/15 08:33:26;;;;;;;6.53;5.78;;;15.90;62.90;;;;;;5096391;28;20027;-87
2021/04/15 08:36:15;;;;;;;6.72;5.45;;;15.90;63.50;;;;;;5115414;28;20035;-88
2021/04/15 08:38:41;;;;;;;8.15;5.22;;;15.80;63.20;;;;;;5099198;28;20111;-88
2021/04/15 08:41:27;;;;;;;6.70;5.03;;;15.80;63.00;;;;;;5106542;28;20028;-88
2021/04/15 08:44:20;;;;;;;6.72;4.80;;;15.70;63.10;;;;;;5114146;28;20024;-87
2021/04/15 08:47:23;;;;;;;8.68;5.60;;;15.70;62.90;;;;;;5127437;28;20035;-87
2021/04/15 08:50:02;;;;;;;10.85;6.20;;;15.60;62.20;;;;;;5117216;28;20082;-86
2021/04/15 08:52:44;;;;;;;12.60;6.72;;;15.40;63.10;;;;;;5112772;28;20039;-88
2021/04/15 08:55:35;;;;;;;8.85;6.72;;;15.40;63.90;;;;;;5099904;28;20039;-88
2021/04/15 08:58:38;;;;;;;8.30;6.18;;;15.40;63.80;;;;;;5096814;28;20451;-89
2021/04/15 09:01:29;;;;;;;7.82;4.90;;;15.40;63.70;;;;;;5101259;28;20553;-87
2021/04/15 09:04:04;;;;;;;6.10;5.30;;;15.40;63.90;;;;;;5098714;28;20027;-87
2021/04/15 09:06:41;;;;;;;7.22;4.85;;;15.50;63.90;;;;;;5097093;28;20032;-89
2021/04/15 09:09:44;;;;;;;6.55;5.40;;;15.50;63.50;;;;;;5096736;27;20110;-89
2021/04/15 09:12:50;;;;;;;6.10;4.80;;;15.60;63.40;;;;;;5113174;27;20058;-89
2021/04/15 09:15:23;;;;;;;5.75;4.93;;;15.70;63.30;;;;;;5114845;28;20020;-89
2021/04/15 09:18:08;;;;;;;10.15;4.97;;;15.70;63.50;;;;;;5118616;28;20041;-88
2021/04/15 09:20:40;;;;;;;6.63;4.47;;;15.70;63.70;;;;;;5101742;28;20182;-89
2021/04/15 09:23:18;;;;;;;7.25;5.20;;;15.80;63.80;;;;;;5110630;28;20067;-89
2021/04/15 09:25:45;;;;;;;8.82;5.80;;;16.00;63.40;;;;;;5125095;28;20019;-90
2021/04/15 09:28:26;;;;;;;9.90;5.93;;;16.20;63.00;;;;;;5116794;28;20111;-88
2021/04/15 09:31:14;;;;;;;9.18;6.70;;;16.40;62.40;;;;;;5106416;28;20095;-89
2021/04/15 09:34:19;;;;;;;16.85;9.02;;;16.50;62.00;;;;;;5117341;28;20046;-90
2021/04/15 09:37:09;;;;;;;9.77;7.75;;;16.70;59.80;;;;;;5077885;28;20023;-89
2021/04/15 09:40:00;;;;;;;13.02;8.05;;;16.80;60.60;;;;;;5095404;28;20046;-89
2021/04/15 09:43:01;;;;;;;8.05;5.93;;;16.70;60.40;;;;;;5121723;28;20031;-89
2021/04/15 09:45:37;;;;;;;9.25;7.43;;;16.80;60.20;;;;;;5118966;28;20122;-88
2021/04/15 09:48:21;;;;;;;9.27;7.90;;;16.80;60.90;;;;;;5129810;28;20034;-88
2021/04/15 09:50:58;;;;;;;8.65;6.60;;;16.90;60.30;;;;;;5133924;28;20035;-89
2021/04/15 09:53:44;;;;;;;9.35;7.45;;;16.90;60.10;;;;;;5118190;28;20055;-88
2021/04/15 09:56:18;;;;;;;8.50;6.82;;;16.90;59.60;;;;;;5115418;28;20028;-88
2021/04/15 09:59:06;;;;;;;7.80;6.53;;;17.00;60.20;;;;;;5115449;28;20096;-88
2021/04/15 10:01:45;;;;;;;8.57;6.97;;;17.00;60.40;;;;;;5116058;28;20024;-89
2021/04/15 10:04:18;;;;;;;9.57;7.45;;;17.00;60.10;;;;;;5130860;27;20461;-89
2021/04/15 10:06:54;;;;;;;9.85;7.82;;;17.10;60.10;;;;;;5126708;27;20019;-89
2021/04/15 10:10:01;;;;;;;9.63;7.20;;;17.00;60.00;;;;;;5118509;27;20154;-89
2021/04/15 10:12:52;;;;;;;8.77;6.82;;;16.90;59.20;;;;;;5098388;28;20028;-88
2021/04/15 10:15:30;;;;;;;9.65;7.30;;;16.70;59.60;;;;;;5119619;27;20118;-89
2021/04/15 10:18:08;;;;;;;10.25;7.88;;;16.50;60.50;;;;;;5138241;27;20027;-87
2021/04/15 10:20:53;;;;;;;8.52;7.00;;;16.30;60.60;;;;;;5138725;27;20023;-88
2021/04/15 10:23:54;;;;;;;9.73;7.45;;;16.20;61.40;;;;;;5120014;27;20019;-89
2021/04/15 10:26:28;;;;;;;8.90;6.90;;;16.20;61.70;;;;;;5119086;27;20035;-89
2021/04/15 10:29:19;;;;;;;8.10;7.13;;;16.20;62.00;;;;;;5121731;27;20023;-88
2021/04/15 10:32:02;;;;;;;8.38;6.65;;;16.30;61.60;;;;;;5138340;27;20029;-88
2021/04/15 10:34:47;;;;;;;10.15;6.53;;;16.30;61.60;;;;;;5138176;27;20023;-89
2021/04/15 10:37:51;;;;;;;7.00;5.40;;;16.50;60.90;;;;;;5122952;27;20378;-88
2021/04/15 10:40:51;;;;;;;7.97;6.20;;;16.70;60.80;;;;;;5157812;27;20083;-88
2021/04/15 10:43:39;;;;;;;7.65;6.40;;;16.90;61.70;;;;;;5141698;27;20023;-91
2021/04/15 10:46:31;;;;;;;16.80;7.80;;;17.00;59.70;;;;;;5158918;27;20480;-88
2021/04/15 10:49:12;;;;;;;10.20;7.65;;;16.90;59.20;;;;;;5139127;27;20041;-87
2021/04/15 10:51:46;;;;;;;8.45;6.55;;;16.90;59.40;;;;;;5133485;27;20133;-89
2021/04/15 10:54:20;;;;;;;8.48;7.05;;;16.80;59.30;;;;;;5119224;27;20072;-88
2021/04/15 10:56:52;;;;;;;10.23;6.40;;;16.70;60.00;;;;;;5122020;27;20027;-87
2021/04/15 10:59:38;;;;;;;8.40;6.45;;;16.60;60.10;;;;;;5119363;27;20031;-89
2021/04/15 11:02:25;;;;;;;10.27;7.20;;;16.60;59.70;;;;;;5119138;27;20088;-88
2021/04/15 11:04:53;;;;;;;8.73;7.20;;;16.60;59.60;;;;;;5138115;27;20031;-89
2021/04/15 11:07:27;;;;;;;7.88;6.32;;;16.60;60.00;;;;;;5119135;27;20076;-88
2021/04/15 11:09:56;;;;;;;8.73;7.30;;;16.50;59.60;;;;;;5119858;27;20051;-88
2021/04/15 11:12:29;;;;;;;7.40;6.20;;;16.50;60.20;;;;;;5119866;27;20161;-88
2021/04/15 11:15:02;;;;;;;9.23;7.88;;;16.60;60.30;;;;;;5136130;27;20023;-89
2021/04/15 11:17:41;;;;;;;7.82;6.38;;;16.60;59.90;;;;;;5112909;27;20345;-88
2021/04/15 11:20:28;;;;;;;7.63;6.15;;;16.70;59.70;;;;;;5098124;28;20053;-88
2021/04/15 11:23:27;;;;;;;9.82;8.82;;;16.70;59.30;;;;;;5090812;27;20032;-88
2021/04/15 11:26:10;;;;;;;7.65;6.25;;;16.70;59.40;;;;;;5091044;27;20031;-88
2021/04/15 11:28:37;;;;;;;10.50;7.07;;;16.90;59.90;;;;;;5135893;27;20028;-88
2021/04/15 11:31:19;;;;;;;7.88;6.68;;;16.80;59.00;;;;;;5102628;27;20035;-89
2021/04/15 11:34:07;;;;;;;8.43;6.97;;;16.70;58.30;;;;;;5130896;27;20027;-88
2021/04/15 11:36:38;;;;;;;9.32;6.25;;;16.60;59.00;;;;;;5117860;27;20041;-89
2021/04/15 11:39:04;;;;;;;8.32;7.03;;;16.50;59.40;;;;;;5108763;28;20030;-88
2021/04/15 11:41:32;;;;;;;8.20;7.18;;;16.40;59.90;;;;;;5130449;27;20458;-88
2021/04/15 11:44:11;;;;;;;9.57;6.65;;;16.30;59.60;;;;;;5117774;27;20069;-90
2021/04/15 11:47:14;;;;;;;9.27;7.32;;;16.30;60.00;;;;;;5112109;28;20020;-90
2021/04/15 11:49:43;;;;;;;9.95;7.22;;;16.20;60.30;;;;;;5117228;27;20104;-89
2021/04/15 11:52:16;;;;;;;6.80;5.35;;;16.10;60.50;;;;;;5117227;27;20035;-89
2021/04/15 11:55:21;;;;;;;9.02;6.63;;;16.10;60.50;;;;;;5134277;27;20034;-90
2021/04/15 11:58:00;;;;;;;6.53;5.47;;;16.20;60.50;;;;;;5123065;27;20431;-89
2021/04/15 12:00:34;;;;;;;7.38;6.53;;;16.10;60.50;;;;;;5110713;27;20113;-88
2021/04/15 12:03:00;;;;;;;;;;;16.20;60.50;;;;;;5102278;27;20120;-89
2021/04/15 12:05:47;;;;;;;10.25;6.43;;;16.20;60.20;;;;;;5105316;27;20325;-88
2021/04/15 12:12:05;;;;;;;8.75;6.50;;;16.30;60.50;;;;;;5078026;28;20129;-89
2021/04/15 12:14:39;;;;;;;11.75;7.97;;;16.50;60.50;;;;;;5080071;28;20036;-91
2021/04/15 12:17:27;;;;;;;9.23;6.95;;;16.60;60.10;;;;;;5125750;28;20448;-89
2021/04/15 12:20:20;;;;;;;7.97;6.93;;;16.60;59.30;;;;;;5115805;28;20027;-89
2021/04/15 12:23:09;;;;;;;9.48;7.78;;;16.60;59.90;;;;;;5115794;28;20023;-87
2021/04/15 12:25:54;;;;;;;8.13;6.63;;;16.70;59.70;;;;;;5095976;28;20549;-88
2021/04/15 12:28:47;;;;;;;9.43;6.28;;;16.90;59.70;;;;;;5097839;28;20385;-90
2021/04/15 12:31:58;;;;;;;7.93;6.78;;;17.00;60.20;;;;;;5100366;28;20027;-89
2021/04/15 12:34:55;;;;;;;7.13;6.38;;;17.20;59.10;;;;;;5083283;28;20044;-88
2021/04/15 12:37:46;;;;;;;9.95;6.82;;;17.40;58.20;;;;;;5115546;28;20028;-89
2021/04/15 12:40:27;;;;;;;8.60;6.30;;;17.50;57.60;;;;;;5098860;28;20493;-89
2021/04/15 12:43:27;;;;;;;9.30;6.72;;;17.60;58.10;;;;;;5118694;28;20031;-88
2021/04/15 12:46:26;;;;;;;6.55;5.43;;;17.80;57.70;;;;;;5110064;28;20482;-89
2021/04/15 12:49:07;;;;;;;7.60;6.68;;;17.90;57.60;;;;;;5114785;28;20080;-88
2021/04/15 12:51:57;;;;;;;10.57;6.43;;;18.10;57.40;;;;;;5115244;28;20096;-88
2021/04/15 12:54:32;;;;;;;7.30;5.70;;;18.20;56.90;;;;;;5119914;28;20031;-87
2021/04/15 12:57:02;;;;;;;8.90;6.05;;;18.30;57.30;;;;;;5102177;28;20099;-89
2021/04/15 12:59:37;;;;;;;7.97;6.03;;;18.50;57.40;;;;;;5100545;28;20016;-89
2021/04/15 13:02:05;;;;;;;10.43;7.30;;;18.80;57.10;;;;;;5095985;28;20080;-88
2021/04/15 13:04:37;;;;;;;9.15;7.00;;;18.90;56.30;;;;;;5114855;28;20555;-88
2021/04/15 13:07:20;;;;;;;10.38;8.15;;;19.00;56.70;;;;;;5096440;28;20035;-89
2021/04/15 13:09:49;;;;;;;11.90;10.48;;;19.10;55.20;;;;;;5110248;28;20039;-89
2021/04/15 13:12:23;;;;;;;16.27;10.23;;;19.20;55.30;;;;;;5090040;27;20126;-88
2021/04/15 13:14:50;;;;;;;;;;;19.20;55.40;;;;;;5114735;27;20023;-89
2021/04/15 13:17:35;;;;;;;15.43;10.95;;;19.20;54.60;;;;;;5096398;28;19998;-89
2021/04/15 13:20:07;;;;;;;15.13;11.05;;;19.30;55.00;;;;;;5095877;28;20020;-89
2021/04/15 13:22:39;;;;;;;13.20;10.55;;;19.40;55.20;;;;;;5096280;28;20040;-88
2021/04/15 13:25:16;;;;;;;14.20;10.30;;;19.60;54.20;;;;;;5097019;28;20473;-88
2021/04/15 13:27:43;;;;;;;15.15;11.60;;;19.80;53.40;;;;;;5096317;28;20126;-89
2021/04/15 13:30:15;;;;;;;12.95;10.00;;;19.90;53.50;;;;;;5090131;28;20070;-89
2021/04/15 13:33:18;;;;;;;11.80;9.18;;;20.00;53.60;;;;;;5096107;28;20066;-88
2021/04/15 13:36:02;;;;;;;15.68;8.65;;;20.30;52.40;;;;;;5096051;28;20455;-88
2021/04/15 13:38:43;;;;;;;12.25;9.57;;;20.50;52.90;;;;;;5100386;28;20031;-88
2021/04/15 13:41:32;;;;;;;13.25;9.38;;;20.60;52.20;;;;;;5100428;28;20024;-88
2021/04/15 13:44:10;;;;;;;12.75;9.57;;;20.70;52.20;;;;;;5119721;28;20024;-89
2021/04/15 13:46:44;;;;;;;18.75;12.38;;;20.60;51.40;;;;;;5100587;28;20023;-87